sensor_id;sensor_type;location;lat;lon;timestamp;pressure;altitude;pressure_sealevel;temperature
20733;BMP180;10527;52.124;5.196;2023-04-23T00:01:17;100629.00;;;21.00
20733;BMP180;10527;52.124;5.196;2023-04-23T00:03:47;100625.00;;;21.00
20733;BMP180;10527;52.124;5.196;2023-04-23T00:06:16;100627.00;;;21.00
20733;BMP180;10527;52.124;5.196;2023-04-23T00:08:43;100627.00;;;21.00
20733;BMP180;10527;52.124;5.196;2023-04-23T00:11:11;100620.00;;;21.00
20733;BMP180;10527;52.124;5.196;2023-04-23T00:13:38;100621.00;;;21.00
20733;BMP180;10527;52.124;5.196;2023-04-23T00:16:05;100611.00;;;20.90
20733;BMP180;10527;52.124;5.196;2023-04-23T00:18:32;100620.00;;;20.90
20733;BMP180;10527;52.124;5.196;2023-04-23T00:20:59;100611.00;;;20.90
20733;BMP180;10527;52.124;5.196;2023-04-23T00:23:29;100611.00;;;20.90
20733;BMP180;10527;52.124;5.196;2023-04-23T00:25:56;100613.00;;;20.80
20733;BMP180;10527;52.124;5.196;2023-04-23T00:28:22;100615.00;;;20.90
20733;BMP180;10527;52.124;5.196;2023-04-23T00:30:49;100606.00;;;20.80
20733;BMP180;10527;52.124;5.196;2023-04-23T00:33:16;100603.00;;;20.80
20733;BMP180;10527;52.124;5.196;2023-04-23T00:35:43;100606.00;;;20.80
20733;BMP180;10527;52.124;5.196;2023-04-23T00:38:10;100599.00;;;20.80
20733;BMP180;10527;52.124;5.196;2023-04-23T00:40:37;100595.00;;;20.80
20733;BMP180;10527;52.124;5.196;2023-04-23T00:43:05;100591.00;;;20.80
20733;BMP180;10527;52.124;5.196;2023-04-23T00:45:33;100592.00;;;20.80
20733;BMP180;10527;52.124;5.196;2023-04-23T00:48:02;100593.00;;;20.80
20733;BMP180;10527;52.124;5.196;2023-04-23T00:50:29;100593.00;;;20.80
20733;BMP180;10527;52.124;5.196;2023-04-23T00:52:56;100579.00;;;20.70
20733;BMP180;10527;52.124;5.196;2023-04-23T00:55:23;100577.00;;;20.80
20733;BMP180;10527;52.124;5.196;2023-04-23T00:57:50;100572.00;;;20.80
20733;BMP180;10527;52.124;5.196;2023-04-23T01:00:17;100565.00;;;20.70
20733;BMP180;10527;52.124;5.196;2023-04-23T01:02:46;100563.00;;;20.70
20733;BMP180;10527;52.124;5.196;2023-04-23T01:05:16;100560.00;;;20.70
20733;BMP180;10527;52.124;5.196;2023-04-23T01:07:45;100561.00;;;20.70
20733;BMP180;10527;52.124;5.196;2023-04-23T01:10:12;100561.00;;;20.70
20733;BMP180;10527;52.124;5.196;2023-04-23T01:12:39;100549.00;;;20.70
20733;BMP180;10527;52.124;5.196;2023-04-23T01:15:07;100554.00;;;20.70
20733;BMP180;10527;52.124;5.196;2023-04-23T01:17:35;100555.00;;;20.70
20733;BMP180;10527;52.124;5.196;2023-04-23T01:20:03;100542.00;;;20.70
20733;BMP180;10527;52.124;5.196;2023-04-23T01:22:35;100548.00;;;20.70
20733;BMP180;10527;52.124;5.196;2023-04-23T01:25:03;100544.00;;;20.70
20733;BMP180;10527;52.124;5.196;2023-04-23T01:27:32;100540.00;;;20.70
20733;BMP180;10527;52.124;5.196;2023-04-23T01:30:03;100540.00;;;20.70
20733;BMP180;10527;52.124;5.196;2023-04-23T01:32:34;100532.00;;;20.70
20733;BMP180;10527;52.124;5.196;2023-04-23T01:35:02;100536.00;;;20.70
20733;BMP180;10527;52.124;5.196;2023-04-23T01:37:32;100536.00;;;20.70
20733;BMP180;10527;52.124;5.196;2023-04-23T01:40:00;100531.00;;;20.70
20733;BMP180;10527;52.124;5.196;2023-04-23T01:42:27;100519.00;;;20.70
20733;BMP180;10527;52.124;5.196;2023-04-23T01:44:54;100539.00;;;20.70
20733;BMP180;10527;52.124;5.196;2023-04-23T01:47:20;100529.00;;;20.70
20733;BMP180;10527;52.124;5.196;2023-04-23T01:49:48;100525.00;;;20.70
20733;BMP180;10527;52.124;5.196;2023-04-23T01:52:15;100532.00;;;20.70
20733;BMP180;10527;52.124;5.196;2023-04-23T01:54:42;100526.00;;;20.70
20733;BMP180;10527;52.124;5.196;2023-04-23T01:57:09;100524.00;;;20.70
20733;BMP180;10527;52.124;5.196;2023-04-23T01:59:36;100527.00;;;20.70
20733;BMP180;10527;52.124;5.196;2023-04-23T02:02:04;100524.00;;;20.70
20733;BMP180;10527;52.124;5.196;2023-04-23T02:04:37;100516.00;;;20.70
20733;BMP180;10527;52.124;5.196;2023-04-23T02:07:06;100507.00;;;20.70
20733;BMP180;10527;52.124;5.196;2023-04-23T02:09:33;100514.00;;;20.70
20733;BMP180;10527;52.124;5.196;2023-04-23T02:12:00;100510.00;;;20.70
20733;BMP180;10527;52.124;5.196;2023-04-23T02:14:28;100502.00;;;20.70
20733;BMP180;10527;52.124;5.196;2023-04-23T02:16:55;100498.00;;;20.70
20733;BMP180;10527;52.124;5.196;2023-04-23T02:19:23;100499.00;;;20.70
20733;BMP180;10527;52.124;5.196;2023-04-23T02:21:50;100492.00;;;20.70
20733;BMP180;10527;52.124;5.196;2023-04-23T02:24:16;100494.00;;;20.70
20733;BMP180;10527;52.124;5.196;2023-04-23T02:26:43;100492.00;;;20.70
20733;BMP180;10527;52.124;5.196;2023-04-23T02:29:10;100488.00;;;20.70
20733;BMP180;10527;52.124;5.196;2023-04-23T02:31:37;100501.00;;;20.60
20733;BMP180;10527;52.124;5.196;2023-04-23T02:34:06;100498.00;;;20.60
20733;BMP180;10527;52.124;5.196;2023-04-23T02:36:34;100488.00;;;20.60
20733;BMP180;10527;52.124;5.196;2023-04-23T02:39:03;100497.00;;;20.60
20733;BMP180;10527;52.124;5.196;2023-04-23T02:41:30;100489.00;;;20.60
20733;BMP180;10527;52.124;5.196;2023-04-23T02:43:57;100481.00;;;20.60
20733;BMP180;10527;52.124;5.196;2023-04-23T02:46:24;100489.00;;;20.60
20733;BMP180;10527;52.124;5.196;2023-04-23T02:48:51;100486.00;;;20.60
20733;BMP180;10527;52.124;5.196;2023-04-23T02:51:18;100488.00;;;20.60
20733;BMP180;10527;52.124;5.196;2023-04-23T02:53:44;100487.00;;;20.60
20733;BMP180;10527;52.124;5.196;2023-04-23T02:56:11;100489.00;;;20.60
20733;BMP180;10527;52.124;5.196;2023-04-23T02:58:41;100494.00;;;20.60
20733;BMP180;10527;52.124;5.196;2023-04-23T03:01:07;100491.00;;;20.60
20733;BMP180;10527;52.124;5.196;2023-04-23T03:03:34;100504.00;;;20.60
20733;BMP180;10527;52.124;5.196;2023-04-23T03:06:02;100499.00;;;20.60
20733;BMP180;10527;52.124;5.196;2023-04-23T03:08:29;100503.00;;;20.60
20733;BMP180;10527;52.124;5.196;2023-04-23T03:10:56;100496.00;;;20.60
20733;BMP180;10527;52.124;5.196;2023-04-23T03:13:24;100498.00;;;20.60
20733;BMP180;10527;52.124;5.196;2023-04-23T03:15:52;100499.00;;;20.60
20733;BMP180;10527;52.124;5.196;2023-04-23T03:18:22;100493.00;;;20.60
20733;BMP180;10527;52.124;5.196;2023-04-23T03:20:49;100493.00;;;20.60
20733;BMP180;10527;52.124;5.196;2023-04-23T03:23:16;100491.00;;;20.60
20733;BMP180;10527;52.124;5.196;2023-04-23T03:25:43;100482.00;;;20.60
20733;BMP180;10527;52.124;5.196;2023-04-23T03:28:10;100486.00;;;20.60
20733;BMP180;10527;52.124;5.196;2023-04-23T03:30:37;100490.00;;;20.60
20733;BMP180;10527;52.124;5.196;2023-04-23T03:33:04;100493.00;;;20.60
20733;BMP180;10527;52.124;5.196;2023-04-23T03:35:30;100494.00;;;20.60
20733;BMP180;10527;52.124;5.196;2023-04-23T03:37:57;100488.00;;;20.60
20733;BMP180;10527;52.124;5.196;2023-04-23T03:40:24;100484.00;;;20.50
20733;BMP180;10527;52.124;5.196;2023-04-23T03:42:51;100488.00;;;20.50
20733;BMP180;10527;52.124;5.196;2023-04-23T03:45:18;100486.00;;;20.50
20733;BMP180;10527;52.124;5.196;2023-04-23T03:47:45;100484.00;;;20.50
20733;BMP180;10527;52.124;5.196;2023-04-23T03:50:16;100493.00;;;20.50
20733;BMP180;10527;52.124;5.196;2023-04-23T03:52:43;100481.00;;;20.50
20733;BMP180;10527;52.124;5.196;2023-04-23T03:55:10;100483.00;;;20.50
20733;BMP180;10527;52.124;5.196;2023-04-23T03:57:37;100473.00;;;20.50
20733;BMP180;10527;52.124;5.196;2023-04-23T04:00:05;100476.00;;;20.50
20733;BMP180;10527;52.124;5.196;2023-04-23T04:02:39;100476.00;;;20.50
20733;BMP180;10527;52.124;5.196;2023-04-23T04:05:07;100469.00;;;20.50
20733;BMP180;10527;52.124;5.196;2023-04-23T04:07:36;100468.00;;;20.50
20733;BMP180;10527;52.124;5.196;2023-04-23T04:10:05;100472.00;;;20.40
20733;BMP180;10527;52.124;5.196;2023-04-23T04:12:32;100467.00;;;20.40
20733;BMP180;10527;52.124;5.196;2023-04-23T04:14:59;100477.00;;;20.40
20733;BMP180;10527;52.124;5.196;2023-04-23T04:17:26;100463.00;;;20.40
20733;BMP180;10527;52.124;5.196;2023-04-23T04:19:53;100476.00;;;20.40
20733;BMP180;10527;52.124;5.196;2023-04-23T04:22:20;100470.00;;;20.40
20733;BMP180;10527;52.124;5.196;2023-04-23T04:24:47;100470.00;;;20.40
20733;BMP180;10527;52.124;5.196;2023-04-23T04:27:14;100470.00;;;20.40
20733;BMP180;10527;52.124;5.196;2023-04-23T04:29:41;100470.00;;;20.40
20733;BMP180;10527;52.124;5.196;2023-04-23T04:32:08;100471.00;;;20.40
20733;BMP180;10527;52.124;5.196;2023-04-23T04:34:37;100478.00;;;20.40
20733;BMP180;10527;52.124;5.196;2023-04-23T04:37:05;100476.00;;;20.40
20733;BMP180;10527;52.124;5.196;2023-04-23T04:39:34;100479.00;;;20.40
20733;BMP180;10527;52.124;5.196;2023-04-23T04:42:01;100482.00;;;20.40
20733;BMP180;10527;52.124;5.196;2023-04-23T04:44:28;100479.00;;;20.40
20733;BMP180;10527;52.124;5.196;2023-04-23T04:46:58;100480.00;;;20.40
20733;BMP180;10527;52.124;5.196;2023-04-23T04:49:25;100484.00;;;20.30
20733;BMP180;10527;52.124;5.196;2023-04-23T04:51:52;100489.00;;;20.30
20733;BMP180;10527;52.124;5.196;2023-04-23T04:54:19;100481.00;;;20.30
20733;BMP180;10527;52.124;5.196;2023-04-23T04:56:47;100479.00;;;20.30
20733;BMP180;10527;52.124;5.196;2023-04-23T04:59:14;100485.00;;;20.30
20733;BMP180;10527;52.124;5.196;2023-04-23T05:01:42;100486.00;;;20.30
20733;BMP180;10527;52.124;5.196;2023-04-23T05:04:09;100485.00;;;20.30
20733;BMP180;10527;52.124;5.196;2023-04-23T05:06:36;100475.00;;;20.30
20733;BMP180;10527;52.124;5.196;2023-04-23T05:09:03;100471.00;;;20.30
20733;BMP180;10527;52.124;5.196;2023-04-23T05:11:31;100484.00;;;20.30
20733;BMP180;10527;52.124;5.196;2023-04-23T05:13:57;100478.00;;;20.30
20733;BMP180;10527;52.124;5.196;2023-04-23T05:16:24;100471.00;;;20.30
20733;BMP180;10527;52.124;5.196;2023-04-23T05:18:51;100476.00;;;20.30
20733;BMP180;10527;52.124;5.196;2023-04-23T05:21:18;100478.00;;;20.30
20733;BMP180;10527;52.124;5.196;2023-04-23T05:23:46;100471.00;;;20.30
20733;BMP180;10527;52.124;5.196;2023-04-23T05:26:12;100471.00;;;20.30
20733;BMP180;10527;52.124;5.196;2023-04-23T05:28:39;100476.00;;;20.30
20733;BMP180;10527;52.124;5.196;2023-04-23T05:31:06;100481.00;;;20.30
20733;BMP180;10527;52.124;5.196;2023-04-23T05:33:33;100485.00;;;20.30
20733;BMP180;10527;52.124;5.196;2023-04-23T05:36:14;100486.00;;;20.30
20733;BMP180;10527;52.124;5.196;2023-04-23T05:38:41;100493.00;;;20.30
20733;BMP180;10527;52.124;5.196;2023-04-23T05:41:08;100490.00;;;20.30
20733;BMP180;10527;52.124;5.196;2023-04-23T05:43:34;100490.00;;;20.30
20733;BMP180;10527;52.124;5.196;2023-04-23T05:46:01;100495.00;;;20.30
20733;BMP180;10527;52.124;5.196;2023-04-23T05:48:30;100481.00;;;20.40
20733;BMP180;10527;52.124;5.196;2023-04-23T05:50:57;100482.00;;;20.40
20733;BMP180;10527;52.124;5.196;2023-04-23T05:53:24;100491.00;;;20.40
20733;BMP180;10527;52.124;5.196;2023-04-23T05:56:01;100476.00;;;20.40
20733;BMP180;10527;52.124;5.196;2023-04-23T05:58:28;100476.00;;;20.40
20733;BMP180;10527;52.124;5.196;2023-04-23T06:01:03;100474.00;;;20.40
20733;BMP180;10527;52.124;5.196;2023-04-23T06:03:31;100476.00;;;20.40
20733;BMP180;10527;52.124;5.196;2023-04-23T06:05:58;100468.00;;;20.50
20733;BMP180;10527;52.124;5.196;2023-04-23T06:08:25;100469.00;;;20.50
20733;BMP180;10527;52.124;5.196;2023-04-23T06:10:52;100474.00;;;20.50
20733;BMP180;10527;52.124;5.196;2023-04-23T06:13:19;100469.00;;;20.50
20733;BMP180;10527;52.124;5.196;2023-04-23T06:15:48;100471.00;;;20.60
20733;BMP180;10527;52.124;5.196;2023-04-23T06:18:15;100470.00;;;20.60
20733;BMP180;10527;52.124;5.196;2023-04-23T06:20:42;100453.00;;;20.60
20733;BMP180;10527;52.124;5.196;2023-04-23T06:23:11;100463.00;;;20.60
20733;BMP180;10527;52.124;5.196;2023-04-23T06:25:38;100464.00;;;20.70
20733;BMP180;10527;52.124;5.196;2023-04-23T06:28:05;100461.00;;;20.70
20733;BMP180;10527;52.124;5.196;2023-04-23T06:30:32;100463.00;;;20.70
20733;BMP180;10527;52.124;5.196;2023-04-23T06:33:01;100458.00;;;20.70
20733;BMP180;10527;52.124;5.196;2023-04-23T06:35:29;100451.00;;;20.80
20733;BMP180;10527;52.124;5.196;2023-04-23T06:37:56;100452.00;;;20.80
20733;BMP180;10527;52.124;5.196;2023-04-23T06:40:22;100451.00;;;20.80
20733;BMP180;10527;52.124;5.196;2023-04-23T06:42:49;100454.00;;;20.90
20733;BMP180;10527;52.124;5.196;2023-04-23T06:45:16;100443.00;;;20.90
20733;BMP180;10527;52.124;5.196;2023-04-23T06:47:43;100444.00;;;21.00
20733;BMP180;10527;52.124;5.196;2023-04-23T06:50:10;100437.00;;;21.00
20733;BMP180;10527;52.124;5.196;2023-04-23T06:52:37;100439.00;;;21.00
20733;BMP180;10527;52.124;5.196;2023-04-23T06:55:04;100440.00;;;21.10
20733;BMP180;10527;52.124;5.196;2023-04-23T06:57:32;100432.00;;;21.10
20733;BMP180;10527;52.124;5.196;2023-04-23T06:59:59;100429.00;;;21.10
20733;BMP180;10527;52.124;5.196;2023-04-23T07:02:44;100442.00;;;21.20
20733;BMP180;10527;52.124;5.196;2023-04-23T07:05:12;100433.00;;;21.20
20733;BMP180;10527;52.124;5.196;2023-04-23T07:07:39;100429.00;;;21.20
20733;BMP180;10527;52.124;5.196;2023-04-23T07:10:10;100437.00;;;21.30
20733;BMP180;10527;52.124;5.196;2023-04-23T07:12:38;100437.00;;;21.30
20733;BMP180;10527;52.124;5.196;2023-04-23T07:15:06;100436.00;;;21.40
20733;BMP180;10527;52.124;5.196;2023-04-23T07:17:34;100437.00;;;21.40
20733;BMP180;10527;52.124;5.196;2023-04-23T07:20:02;100432.00;;;21.50
20733;BMP180;10527;52.124;5.196;2023-04-23T07:22:34;100431.00;;;21.50
20733;BMP180;10527;52.124;5.196;2023-04-23T07:25:01;100433.00;;;21.60
20733;BMP180;10527;52.124;5.196;2023-04-23T07:27:29;100432.00;;;21.60
20733;BMP180;10527;52.124;5.196;2023-04-23T07:29:57;100428.00;;;21.70
20733;BMP180;10527;52.124;5.196;2023-04-23T07:32:24;100427.00;;;21.70
20733;BMP180;10527;52.124;5.196;2023-04-23T07:34:54;100418.00;;;21.80
20733;BMP180;10527;52.124;5.196;2023-04-23T07:37:21;100422.00;;;21.80
20733;BMP180;10527;52.124;5.196;2023-04-23T07:39:48;100427.00;;;21.90
20733;BMP180;10527;52.124;5.196;2023-04-23T07:42:15;100420.00;;;22.00
20733;BMP180;10527;52.124;5.196;2023-04-23T07:44:42;100426.00;;;22.00
20733;BMP180;10527;52.124;5.196;2023-04-23T07:47:09;100418.00;;;22.10
20733;BMP180;10527;52.124;5.196;2023-04-23T07:49:37;100417.00;;;22.10
20733;BMP180;10527;52.124;5.196;2023-04-23T07:52:04;100421.00;;;22.20
20733;BMP180;10527;52.124;5.196;2023-04-23T07:54:31;100410.00;;;22.40
20733;BMP180;10527;52.124;5.196;2023-04-23T07:56:58;100416.00;;;22.50
20733;BMP180;10527;52.124;5.196;2023-04-23T07:59:28;100426.00;;;22.60
20733;BMP180;10527;52.124;5.196;2023-04-23T08:01:55;100410.00;;;22.70
20733;BMP180;10527;52.124;5.196;2023-04-23T08:04:24;100407.00;;;22.70
20733;BMP180;10527;52.124;5.196;2023-04-23T08:06:51;100408.00;;;22.80
20733;BMP180;10527;52.124;5.196;2023-04-23T08:09:18;100411.00;;;22.90
20733;BMP180;10527;52.124;5.196;2023-04-23T08:11:51;100407.00;;;23.00
20733;BMP180;10527;52.124;5.196;2023-04-23T08:14:18;100413.00;;;23.10
20733;BMP180;10527;52.124;5.196;2023-04-23T08:16:45;100411.00;;;23.30
20733;BMP180;10527;52.124;5.196;2023-04-23T08:19:11;100414.00;;;23.60
20733;BMP180;10527;52.124;5.196;2023-04-23T08:21:45;100404.00;;;24.00
20733;BMP180;10527;52.124;5.196;2023-04-23T08:24:22;100399.00;;;24.30
20733;BMP180;10527;52.124;5.196;2023-04-23T08:26:48;100404.00;;;24.60
20733;BMP180;10527;52.124;5.196;2023-04-23T08:29:15;100397.00;;;25.00
20733;BMP180;10527;52.124;5.196;2023-04-23T08:31:45;100396.00;;;25.40
20733;BMP180;10527;52.124;5.196;2023-04-23T08:34:13;100394.00;;;25.70
20733;BMP180;10527;52.124;5.196;2023-04-23T08:36:40;100394.00;;;26.00
20733;BMP180;10527;52.124;5.196;2023-04-23T08:39:07;100398.00;;;26.20
20733;BMP180;10527;52.124;5.196;2023-04-23T08:41:40;100389.00;;;26.50
20733;BMP180;10527;52.124;5.196;2023-04-23T08:44:22;100395.00;;;26.80
20733;BMP180;10527;52.124;5.196;2023-04-23T08:47:09;100392.00;;;27.00
20733;BMP180;10527;52.124;5.196;2023-04-23T08:49:40;100399.00;;;27.20
20733;BMP180;10527;52.124;5.196;2023-04-23T08:52:16;100402.00;;;27.30
20733;BMP180;10527;52.124;5.196;2023-04-23T08:55:08;100393.00;;;27.50
20733;BMP180;10527;52.124;5.196;2023-04-23T08:57:41;100396.00;;;27.60
20733;BMP180;10527;52.124;5.196;2023-04-23T09:00:29;100396.00;;;27.70
20733;BMP180;10527;52.124;5.196;2023-04-23T09:02:57;100396.00;;;27.70
20733;BMP180;10527;52.124;5.196;2023-04-23T09:05:25;100397.00;;;27.80
20733;BMP180;10527;52.124;5.196;2023-04-23T09:08:12;100390.00;;;27.90
20733;BMP180;10527;52.124;5.196;2023-04-23T09:10:41;100391.00;;;27.90
20733;BMP180;10527;52.124;5.196;2023-04-23T09:13:08;100388.00;;;27.90
20733;BMP180;10527;52.124;5.196;2023-04-23T09:15:35;100405.00;;;27.90
20733;BMP180;10527;52.124;5.196;2023-04-23T09:18:16;100404.00;;;28.00
20733;BMP180;10527;52.124;5.196;2023-04-23T09:20:44;100391.00;;;27.90
20733;BMP180;10527;52.124;5.196;2023-04-23T09:23:31;100392.00;;;27.90
20733;BMP180;10527;52.124;5.196;2023-04-23T09:25:58;100394.00;;;27.80
20733;BMP180;10527;52.124;5.196;2023-04-23T09:28:54;100390.00;;;27.80
20733;BMP180;10527;52.124;5.196;2023-04-23T09:31:23;100381.00;;;27.70
20733;BMP180;10527;52.124;5.196;2023-04-23T09:33:52;100383.00;;;27.60
20733;BMP180;10527;52.124;5.196;2023-04-23T09:36:36;100379.00;;;27.60
20733;BMP180;10527;52.124;5.196;2023-04-23T09:39:14;100385.00;;;27.60
20733;BMP180;10527;52.124;5.196;2023-04-23T09:42:03;100374.00;;;27.60
20733;BMP180;10527;52.124;5.196;2023-04-23T09:44:32;100383.00;;;27.50
20733;BMP180;10527;52.124;5.196;2023-04-23T09:47:08;100383.00;;;27.50
20733;BMP180;10527;52.124;5.196;2023-04-23T09:49:49;100381.00;;;27.50
20733;BMP180;10527;52.124;5.196;2023-04-23T09:52:17;100383.00;;;27.40
20733;BMP180;10527;52.124;5.196;2023-04-23T09:54:45;100375.00;;;27.40
20733;BMP180;10527;52.124;5.196;2023-04-23T09:57:23;100372.00;;;27.40
20733;BMP180;10527;52.124;5.196;2023-04-23T09:59:50;100370.00;;;27.40
20733;BMP180;10527;52.124;5.196;2023-04-23T10:02:36;100374.00;;;27.40
20733;BMP180;10527;52.124;5.196;2023-04-23T10:05:21;100374.00;;;27.40
20733;BMP180;10527;52.124;5.196;2023-04-23T10:07:55;100369.00;;;27.50
20733;BMP180;10527;52.124;5.196;2023-04-23T10:10:24;100369.00;;;27.40
20733;BMP180;10527;52.124;5.196;2023-04-23T10:12:52;100371.00;;;27.50
20733;BMP180;10527;52.124;5.196;2023-04-23T10:15:25;100372.00;;;27.50
20733;BMP180;10527;52.124;5.196;2023-04-23T10:17:53;100364.00;;;27.50
20733;BMP180;10527;52.124;5.196;2023-04-23T10:20:22;100368.00;;;27.50
20733;BMP180;10527;52.124;5.196;2023-04-23T10:22:54;100370.00;;;27.50
20733;BMP180;10527;52.124;5.196;2023-04-23T10:25:24;100360.00;;;27.50
20733;BMP180;10527;52.124;5.196;2023-04-23T10:27:54;100365.00;;;27.60
20733;BMP180;10527;52.124;5.196;2023-04-23T10:30:22;100354.00;;;27.60
20733;BMP180;10527;52.124;5.196;2023-04-23T10:32:49;100351.00;;;27.60
20733;BMP180;10527;52.124;5.196;2023-04-23T10:35:17;100346.00;;;27.60
20733;BMP180;10527;52.124;5.196;2023-04-23T10:37:45;100348.00;;;27.70
20733;BMP180;10527;52.124;5.196;2023-04-23T10:40:20;100350.00;;;27.70
20733;BMP180;10527;52.124;5.196;2023-04-23T10:42:52;100341.00;;;27.70
20733;BMP180;10527;52.124;5.196;2023-04-23T10:45:21;100335.00;;;27.70
20733;BMP180;10527;52.124;5.196;2023-04-23T10:47:53;100336.00;;;27.70
20733;BMP180;10527;52.124;5.196;2023-04-23T10:50:27;100334.00;;;27.70
20733;BMP180;10527;52.124;5.196;2023-04-23T10:52:57;100332.00;;;27.80
20733;BMP180;10527;52.124;5.196;2023-04-23T10:55:30;100326.00;;;27.80
20733;BMP180;10527;52.124;5.196;2023-04-23T10:58:00;100315.00;;;27.80
20733;BMP180;10527;52.124;5.196;2023-04-23T11:00:43;100304.00;;;27.90
20733;BMP180;10527;52.124;5.196;2023-04-23T11:03:38;100312.00;;;27.90
20733;BMP180;10527;52.124;5.196;2023-04-23T11:09:44;100300.00;;;27.90
20733;BMP180;10527;52.124;5.196;2023-04-23T11:12:31;100299.00;;;27.90
20733;BMP180;10527;52.124;5.196;2023-04-23T11:15:09;100297.00;;;28.00
20733;BMP180;10527;52.124;5.196;2023-04-23T11:22:58;100294.00;;;28.00
20733;BMP180;10527;52.124;5.196;2023-04-23T11:25:26;100295.00;;;28.10
20733;BMP180;10527;52.124;5.196;2023-04-23T11:27:56;100284.00;;;28.10
20733;BMP180;10527;52.124;5.196;2023-04-23T11:30:30;100282.00;;;28.20
20733;BMP180;10527;52.124;5.196;2023-04-23T11:32:59;100275.00;;;28.20
20733;BMP180;10527;52.124;5.196;2023-04-23T11:35:29;100274.00;;;28.20
20733;BMP180;10527;52.124;5.196;2023-04-23T11:38:08;100273.00;;;28.30
20733;BMP180;10527;52.124;5.196;2023-04-23T11:40:35;100257.00;;;28.30
20733;BMP180;10527;52.124;5.196;2023-04-23T11:43:02;100256.00;;;28.30
20733;BMP180;10527;52.124;5.196;2023-04-23T11:45:29;100251.00;;;28.40
20733;BMP180;10527;52.124;5.196;2023-04-23T11:48:00;100244.00;;;28.40
20733;BMP180;10527;52.124;5.196;2023-04-23T11:50:31;100240.00;;;28.50
20733;BMP180;10527;52.124;5.196;2023-04-23T11:53:20;100244.00;;;28.50
20733;BMP180;10527;52.124;5.196;2023-04-23T11:55:48;100234.00;;;28.50
20733;BMP180;10527;52.124;5.196;2023-04-23T11:58:18;100236.00;;;28.50
20733;BMP180;10527;52.124;5.196;2023-04-23T12:00:45;100233.00;;;28.50
20733;BMP180;10527;52.124;5.196;2023-04-23T12:03:12;100232.00;;;28.50
20733;BMP180;10527;52.124;5.196;2023-04-23T12:05:43;100228.00;;;28.50
20733;BMP180;10527;52.124;5.196;2023-04-23T12:08:13;100224.00;;;28.50
20733;BMP180;10527;52.124;5.196;2023-04-23T12:10:52;100232.00;;;28.40
20733;BMP180;10527;52.124;5.196;2023-04-23T12:13:44;100227.00;;;28.40
20733;BMP180;10527;52.124;5.196;2023-04-23T12:16:10;100221.00;;;28.40
20733;BMP180;10527;52.124;5.196;2023-04-23T12:18:41;100222.00;;;28.40
20733;BMP180;10527;52.124;5.196;2023-04-23T12:21:11;100220.00;;;28.40
20733;BMP180;10527;52.124;5.196;2023-04-23T12:24:02;100213.00;;;28.40
20733;BMP180;10527;52.124;5.196;2023-04-23T12:26:29;100209.00;;;28.40
20733;BMP180;10527;52.124;5.196;2023-04-23T12:28:58;100210.00;;;28.40
20733;BMP180;10527;52.124;5.196;2023-04-23T12:31:28;100209.00;;;28.50
20733;BMP180;10527;52.124;5.196;2023-04-23T12:34:27;100208.00;;;28.60
20733;BMP180;10527;52.124;5.196;2023-04-23T12:36:55;100198.00;;;28.60
20733;BMP180;10527;52.124;5.196;2023-04-23T12:39:49;100182.00;;;28.60
20733;BMP180;10527;52.124;5.196;2023-04-23T12:42:16;100180.00;;;28.70
20733;BMP180;10527;52.124;5.196;2023-04-23T12:44:46;100175.00;;;28.70
20733;BMP180;10527;52.124;5.196;2023-04-23T12:47:13;100178.00;;;28.70
20733;BMP180;10527;52.124;5.196;2023-04-23T12:50:00;100177.00;;;28.80
20733;BMP180;10527;52.124;5.196;2023-04-23T12:52:29;100170.00;;;28.80
20733;BMP180;10527;52.124;5.196;2023-04-23T12:54:58;100173.00;;;28.80
20733;BMP180;10527;52.124;5.196;2023-04-23T12:57:26;100169.00;;;28.80
20733;BMP180;10527;52.124;5.196;2023-04-23T12:59:53;100167.00;;;28.80
20733;BMP180;10527;52.124;5.196;2023-04-23T13:02:40;100158.00;;;28.80
20733;BMP180;10527;52.124;5.196;2023-04-23T13:05:10;100151.00;;;28.80
20733;BMP180;10527;52.124;5.196;2023-04-23T13:07:36;100155.00;;;28.80
20733;BMP180;10527;52.124;5.196;2023-04-23T13:10:10;100148.00;;;28.80
20733;BMP180;10527;52.124;5.196;2023-04-23T13:12:37;100145.00;;;28.70
20733;BMP180;10527;52.124;5.196;2023-04-23T13:15:05;100140.00;;;28.70
20733;BMP180;10527;52.124;5.196;2023-04-23T13:17:32;100141.00;;;28.70
20733;BMP180;10527;52.124;5.196;2023-04-23T13:19:59;100132.00;;;28.70
20733;BMP180;10527;52.124;5.196;2023-04-23T13:22:26;100136.00;;;28.70
20733;BMP180;10527;52.124;5.196;2023-04-23T13:24:57;100132.00;;;28.70
20733;BMP180;10527;52.124;5.196;2023-04-23T13:27:25;100135.00;;;28.60
20733;BMP180;10527;52.124;5.196;2023-04-23T13:29:52;100127.00;;;28.60
20733;BMP180;10527;52.124;5.196;2023-04-23T13:32:22;100124.00;;;28.60
20733;BMP180;10527;52.124;5.196;2023-04-23T13:34:53;100118.00;;;28.60
20733;BMP180;10527;52.124;5.196;2023-04-23T13:37:21;100116.00;;;28.60
20733;BMP180;10527;52.124;5.196;2023-04-23T13:39:49;100115.00;;;28.60
20733;BMP180;10527;52.124;5.196;2023-04-23T13:42:16;100112.00;;;28.60
20733;BMP180;10527;52.124;5.196;2023-04-23T13:44:43;100110.00;;;28.60
20733;BMP180;10527;52.124;5.196;2023-04-23T13:47:09;100109.00;;;28.60
20733;BMP180;10527;52.124;5.196;2023-04-23T13:49:36;100108.00;;;28.60
20733;BMP180;10527;52.124;5.196;2023-04-23T13:52:03;100091.00;;;28.50
20733;BMP180;10527;52.124;5.196;2023-04-23T13:54:32;100101.00;;;28.50
20733;BMP180;10527;52.124;5.196;2023-04-23T13:57:01;100092.00;;;28.50
20733;BMP180;10527;52.124;5.196;2023-04-23T13:59:28;100093.00;;;28.50
20733;BMP180;10527;52.124;5.196;2023-04-23T14:01:55;100092.00;;;28.50
20733;BMP180;10527;52.124;5.196;2023-04-23T14:04:22;100085.00;;;28.50
20733;BMP180;10527;52.124;5.196;2023-04-23T14:06:49;100080.00;;;28.50
20733;BMP180;10527;52.124;5.196;2023-04-23T14:09:16;100079.00;;;28.50
20733;BMP180;10527;52.124;5.196;2023-04-23T14:11:44;100073.00;;;28.50
20733;BMP180;10527;52.124;5.196;2023-04-23T14:14:11;100074.00;;;28.50
20733;BMP180;10527;52.124;5.196;2023-04-23T14:16:38;100073.00;;;28.50
20733;BMP180;10527;52.124;5.196;2023-04-23T14:19:05;100059.00;;;28.50